Time;durP1;ratioP1;P1;durP2;ratioP2;P2;SDS_P1;SDS_P2;PMS_P1;PMS_P2;Temp;Humidity;BMP_temperature;BMP_pressure;BME280_temperature;BME280_humidity;BME280_pressure;Samples;Min_cycle;Max_cycle;Signal;HPM_P1;HPM_P2
2022/05/04 00:00:58;;;;;;;7.72;5.18;;;;;;;6.58;100.00;92978.47;2123608;27;20094;-83
2022/05/04 00:01:59;;;;;;;5.90;4.80;;;;;;;6.60;100.00;92976.19;2114277;28;20024;-80
2022/05/04 00:03:00;;;;;;;5.65;4.95;;;;;;;6.51;100.00;92978.56;2106865;28;20032;-83
2022/05/04 00:04:02;;;;;;;6.68;4.65;;;;;;;6.42;100.00;92976.34;2106715;28;20057;-80
2022/05/04 00:05:04;;;;;;;6.00;4.57;;;;;;;6.43;100.00;92971.81;2097928;28;20032;-81
2022/05/04 00:06:06;;;;;;;8.90;4.63;;;;;;;6.36;100.00;92972.59;2097060;28;20024;-81
2022/05/04 00:07:07;;;;;;;5.13;4.55;;;;;;;6.37;100.00;92970.72;2089685;28;20029;-80
2022/05/04 00:08:08;;;;;;;6.13;5.05;;;;;;;6.36;100.00;92969.94;2089886;28;20035;-82
2022/05/04 00:09:09;;;;;;;4.65;4.07;;;;;;;6.38;100.00;92972.22;2098525;28;20021;-82
2022/05/04 00:10:12;;;;;;;5.25;4.75;;;;;;;6.35;100.00;92965.03;2106804;28;20496;-81
2022/05/04 00:11:13;;;;;;;6.63;5.07;;;;;;;6.24;100.00;92968.53;2099414;28;20025;-80
2022/05/04 00:12:14;;;;;;;5.75;4.80;;;;;;;6.26;100.00;92968.13;2097036;28;20058;-80
2022/05/04 00:13:15;;;;;;;6.03;4.72;;;;;;;6.27;100.00;92970.38;2095410;28;20045;-79
2022/05/04 00:14:17;;;;;;;6.82;4.30;;;;;;;6.28;100.00;92963.97;2105666;28;20107;-80
2022/05/04 00:15:18;;;;;;;7.18;4.65;;;;;;;6.19;100.00;92968.19;2107096;28;20089;-80
2022/05/04 00:16:19;;;;;;;5.60;4.68;;;;;;;6.19;100.00;92968.19;2115056;28;20091;-80
2022/05/04 00:17:20;;;;;;;6.85;4.72;;;;;;;6.18;100.00;92969.34;2115185;28;20020;-80
2022/05/04 00:18:21;;;;;;;5.15;4.70;;;;;;;6.20;100.00;92959.09;2106769;28;20047;-81
2022/05/04 00:19:22;;;;;;;5.90;4.10;;;;;;;6.18;100.00;92970.09;2090198;28;20436;-81
2022/05/04 00:20:23;;;;;;;6.15;4.80;;;;;;;6.26;100.00;92968.88;2082075;28;20035;-80
2022/05/04 00:21:24;;;;;;;5.43;4.93;;;;;;;6.30;100.00;92960.91;2090075;28;20024;-80
2022/05/04 00:22:26;;;;;;;5.03;4.53;;;;;;;6.20;100.00;92959.84;2089974;28;20032;-81
2022/05/04 00:23:27;;;;;;;7.32;4.45;;;;;;;6.10;100.00;92962.56;2090239;28;20029;-81
2022/05/04 00:24:28;;;;;;;6.88;4.93;;;;;;;6.00;100.00;92964.16;2098293;28;20024;-80
2022/05/04 00:25:29;;;;;;;4.88;4.47;;;;;;;6.00;100.00;92964.16;2106362;28;20027;-81
2022/05/04 00:26:30;;;;;;;5.85;4.90;;;;;;;6.05;100.00;92967.16;2106168;28;20020;-82
2022/05/04 00:27:33;;;;;;;4.95;4.45;;;;;;;5.99;100.00;92974.03;2112751;28;20031;-81
2022/05/04 00:28:34;;;;;;;5.80;5.20;;;;;;;5.94;100.00;92968.38;2106809;28;20496;-80
2022/05/04 00:29:34;;;;;;;5.68;4.82;;;;;;;5.93;100.00;92972.19;2106621;28;20040;-82
2022/05/04 00:30:35;;;;;;;5.10;4.70;;;;;;;5.98;100.00;92971.75;2106507;28;20024;-81
2022/05/04 00:31:36;;;;;;;5.65;5.07;;;;;;;6.00;100.00;92966.81;2098137;28;20032;-82
2022/05/04 00:32:37;;;;;;;6.50;5.07;;;;;;;6.05;100.00;92961.09;2098148;28;20412;-81
2022/05/04 00:33:38;;;;;;;5.70;4.78;;;;;;;5.98;100.00;92969.13;2091662;28;20029;-80
2022/05/04 00:34:40;;;;;;;7.20;4.75;;;;;;;5.94;100.00;92969.13;2086445;28;20099;-81
2022/05/04 00:35:41;;;;;;;6.35;4.72;;;;;;;5.90;100.00;92963.06;2098300;28;20021;-81
2022/05/04 00:36:42;;;;;;;5.75;5.15;;;;;;;5.87;100.00;92958.53;2106300;28;20020;-81
2022/05/04 00:37:43;;;;;;;5.07;4.57;;;;;;;5.81;100.00;92968.81;2089405;28;20039;-82
2022/05/04 00:38:44;;;;;;;7.00;5.07;;;;;;;5.82;100.00;92962.34;2097917;28;20488;-81
2022/05/04 00:39:47;;;;;;;5.68;5.10;;;;;;;5.81;100.00;92965.41;2098154;28;20024;-82
2022/05/04 00:40:48;;;;;;;5.25;4.60;;;;;;;5.87;100.00;92965.75;2082144;28;20699;-81
2022/05/04 00:41:49;;;;;;;6.03;4.82;;;;;;;5.84;100.00;92959.31;2093504;28;20020;-80
2022/05/04 00:42:50;;;;;;;5.40;4.90;;;;;;;5.77;100.00;92960.13;2106461;28;20024;-81
2022/05/04 00:43:53;;;;;;;5.47;4.97;;;;;;;5.88;100.00;92957.38;2098037;28;20107;-82
2022/05/04 00:44:54;;;;;;;5.45;4.85;;;;;;;5.72;100.00;92962.44;2090242;28;20464;-81
2022/05/04 00:45:55;;;;;;;6.05;4.90;;;;;;;5.65;100.00;92963.22;2106536;28;20032;-82
2022/05/04 00:46:56;;;;;;;5.03;4.53;;;;;;;5.72;100.00;92965.09;2114894;28;20023;-81
2022/05/04 00:47:58;;;;;;;5.60;4.80;;;;;;;5.77;100.00;92968.06;2106505;28;20078;-81
2022/05/04 00:48:59;;;;;;;6.10;5.40;;;;;;;5.69;100.00;92969.25;2106286;28;20052;-82
2022/05/04 00:50:07;;;;;;;5.32;4.80;;;;;;;5.70;100.00;92962.03;2097165;28;20027;-81
2022/05/04 00:51:08;;;;;;;5.63;5.13;;;;;;;5.66;100.00;92967.38;2083571;28;20119;-81
2022/05/04 00:52:11;;;;;;;6.85;5.13;;;;;;;5.69;100.00;92963.19;2089419;28;20028;-82
2022/05/04 00:53:12;;;;;;;5.10;4.60;;;;;;;5.75;100.00;92965.06;2097544;28;20025;-81
2022/05/04 00:54:13;;;;;;;7.10;5.28;;;;;;;5.73;100.00;92969.22;2098000;28;20068;-82
2022/05/04 00:55:18;;;;;;;5.82;4.50;;;;;;;5.61;100.00;92959.06;2097960;28;20024;-82
2022/05/04 00:56:19;;;;;;;7.55;5.20;;;;;;;5.55;100.00;92966.69;2098408;28;20043;-82
2022/05/04 00:58:56;;;;;;;5.60;5.00;;;;;;;5.43;100.00;92957.28;2106412;28;20026;-80
2022/05/04 00:59:57;;;;;;;5.20;4.68;;;;;;;5.43;100.00;92964.47;2096590;28;20028;-80
2022/05/04 01:01:01;;;;;;;5.90;4.25;;;;;;;5.39;100.00;92961.81;2098105;28;20024;-80
2022/05/04 01:02:02;;;;;;;4.72;4.20;;;;;;;5.37;100.00;92960.72;2113866;28;20051;-81
2022/05/04 01:03:03;;;;;;;5.03;4.63;;;;;;;5.43;100.00;92962.56;2100419;28;20118;-80
2022/05/04 01:04:04;;;;;;;7.32;4.55;;;;;;;5.44;100.00;92958.78;2081461;28;20037;-80
2022/05/04 01:05:09;;;;;;;6.22;4.43;;;;;;;5.43;100.00;92967.88;2091682;28;20028;-82
2022/05/04 01:06:10;;;;;;;5.30;4.63;;;;;;;5.43;100.00;92967.88;2104191;28;20024;-80
2022/05/04 01:07:11;;;;;;;5.35;4.82;;;;;;;5.34;100.00;92958.84;2096299;28;20059;-80
2022/05/04 01:08:13;;;;;;;4.47;4.05;;;;;;;5.46;100.00;92964.47;2098227;28;20027;-81
2022/05/04 01:09:15;;;;;;;4.88;4.38;;;;;;;5.44;100.00;92965.97;2098175;28;20020;-81
2022/05/04 01:10:16;;;;;;;5.90;5.07;;;;;;;5.35;100.00;92963.75;2106366;28;20066;-80
2022/05/04 01:11:18;;;;;;;5.97;4.43;;;;;;;5.50;100.00;92970.50;2097897;28;20035;-81
2022/05/04 01:12:23;;;;;;;6.07;4.40;;;;;;;5.37;100.00;92966.03;2098252;28;20060;-81
2022/05/04 01:13:24;;;;;;;4.85;4.18;;;;;;;5.42;100.00;92963.72;2098026;28;20598;-80
2022/05/04 01:14:25;;;;;;;4.88;4.38;;;;;;;5.55;100.00;92964.03;2105650;28;20055;-81
2022/05/04 01:15:26;;;;;;;5.50;4.43;;;;;;;5.36;100.00;92972.47;2097837;28;20413;-80
2022/05/04 01:16:28;;;;;;;5.13;4.63;;;;;;;5.39;100.00;92975.09;2081391;28;20048;-82
2022/05/04 01:17:29;;;;;;;7.40;4.60;;;;;;;5.34;100.00;92966.78;2094540;28;20031;-80
2022/05/04 01:18:29;;;;;;;5.30;4.80;;;;;;;5.33;100.00;92973.97;2097820;28;20091;-80
2022/05/04 01:19:30;;;;;;;5.05;4.30;;;;;;;5.19;100.00;92969.50;2106364;28;20152;-81
2022/05/04 01:20:31;;;;;;;5.07;4.57;;;;;;;5.27;100.00;92965.69;2097804;28;20020;-80
2022/05/04 01:21:33;;;;;;;6.68;4.53;;;;;;;5.30;100.00;92969.44;2089663;28;20025;-82
2022/05/04 01:22:36;;;;;;;5.63;4.75;;;;;;;5.23;100.00;92969.50;2097742;28;20024;-82
2022/05/04 01:23:37;;;;;;;5.50;4.75;;;;;;;5.32;100.00;92961.13;2112557;28;20029;-81
2022/05/04 01:24:39;;;;;;;6.82;5.18;;;;;;;5.33;100.00;92960.72;2114558;28;20022;-81
2022/05/04 01:25:40;;;;;;;6.38;4.90;;;;;;;5.28;100.00;92961.88;2105789;28;20562;-80
2022/05/04 01:26:41;;;;;;;7.03;4.55;;;;;;;5.39;100.00;92964.47;2114148;28;20534;-81
2022/05/04 01:27:42;;;;;;;5.57;4.60;;;;;;;5.34;100.00;92964.13;2113457;28;20121;-80
2022/05/04 01:28:45;;;;;;;5.30;4.80;;;;;;;5.23;100.00;92967.59;2097864;28;20016;-81
2022/05/04 01:29:47;;;;;;;6.28;4.68;;;;;;;5.24;100.00;92969.09;2090001;28;20028;-81
2022/05/04 01:30:48;;;;;;;5.50;4.38;;;;;;;5.17;100.00;92966.47;2098206;28;20047;-81
2022/05/04 01:31:49;;;;;;;6.28;4.43;;;;;;;5.08;100.00;92971.41;2106248;28;20094;-83
2022/05/04 01:32:50;;;;;;;6.47;4.78;;;;;;;5.30;100.00;92967.53;2106005;28;20031;-82
2022/05/04 01:33:52;;;;;;;5.45;4.95;;;;;;;5.27;100.00;92962.28;2097646;28;20032;-80
2022/05/04 01:34:53;;;;;;;7.47;5.03;;;;;;;5.20;100.00;92971.00;2089616;28;20071;-81
2022/05/04 01:35:54;;;;;;;5.68;5.10;;;;;;;5.35;100.00;92961.09;2093293;28;20055;-82
2022/05/04 01:36:55;;;;;;;9.10;5.70;;;;;;;5.21;100.00;92961.16;2089361;28;20055;-81
2022/05/04 01:37:56;;;;;;;6.38;5.15;;;;;;;5.15;100.00;92963.47;2088571;28;20049;-81
2022/05/04 01:38:57;;;;;;;7.72;5.47;;;;;;;5.36;100.00;92964.53;2089355;28;20509;-82
2022/05/04 01:39:58;;;;;;;5.80;5.00;;;;;;;5.27;100.00;92963.03;2081227;28;20055;-80
2022/05/04 01:40:59;;;;;;;6.85;5.13;;;;;;;5.16;100.00;92966.84;2098668;28;20020;-81
2022/05/04 01:42:03;;;;;;;5.90;5.30;;;;;;;5.06;100.00;92973.72;2105971;28;20047;-81
2022/05/04 01:43:04;;;;;;;5.47;4.95;;;;;;;5.13;100.00;92962.31;2090146;28;20075;-82
2022/05/04 01:44:05;;;;;;;6.43;5.38;;;;;;;5.17;100.00;92971.75;2089321;28;20052;-82
2022/05/04 01:45:08;;;;;;;6.32;5.38;;;;;;;5.11;100.00;92973.31;2097702;28;20074;-81
2022/05/04 01:46:09;;;;;;;6.93;5.43;;;;;;;5.15;100.00;92971.41;2098034;28;20031;-80
2022/05/04 01:47:11;;;;;;;10.60;5.50;;;;;;;5.12;100.00;92966.13;2089314;28;20111;-81
2022/05/04 01:48:12;;;;;;;6.25;5.38;;;;;;;5.11;100.00;92972.56;2097732;28;20021;-81
2022/05/04 01:49:14;;;;;;;6.05;5.45;;;;;;;5.11;100.00;92972.56;2105854;28;20016;-80
2022/05/04 01:50:18;;;;;;;5.00;4.50;;;;;;;5.11;100.00;92969.91;2093558;28;20021;-82
2022/05/04 01:51:19;;;;;;;6.55;5.00;;;;;;;4.99;100.00;92969.19;2089677;28;20032;-82
2022/05/04 01:52:20;;;;;;;6.05;4.72;;;;;;;4.93;100.00;92969.97;2089321;28;20410;-82
2022/05/04 01:53:21;;;;;;;6.15;5.03;;;;;;;4.98;100.00;92970.31;2101503;28;20056;-80
2022/05/04 01:54:22;;;;;;;11.02;4.68;;;;;;;4.96;100.00;92977.91;2089263;28;20038;-80
2022/05/04 01:55:25;;;;;;;5.30;4.80;;;;;;;4.87;100.00;92972.22;2089635;28;20025;-80
2022/05/04 01:56:26;;;;;;;5.78;4.53;;;;;;;4.96;100.00;92971.84;2097547;28;20028;-80
2022/05/04 01:57:27;;;;;;;6.47;4.88;;;;;;;4.91;100.00;92977.53;2100922;28;20031;-82
2022/05/04 01:58:28;;;;;;;7.15;4.82;;;;;;;4.76;100.00;92971.53;2114247;28;20427;-82
2022/05/04 01:59:29;;;;;;;5.25;4.13;;;;;;;4.85;100.00;92979.06;2097532;28;20032;-82
2022/05/04 02:00:30;;;;;;;5.18;4.05;;;;;;;4.83;100.00;92978.69;2102666;28;20123;-80
2022/05/04 02:01:32;;;;;;;4.65;4.22;;;;;;;4.80;100.00;92977.56;2097086;28;20832;-79
2022/05/04 02:02:34;;;;;;;4.20;3.80;;;;;;;4.78;100.00;92966.59;2097172;28;20016;-82
2022/05/04 02:03:37;;;;;;;4.35;3.88;;;;;;;4.86;100.00;92970.72;2097806;28;20033;-82
2022/05/04 02:04:39;;;;;;;6.65;4.45;;;;;;;4.82;100.00;92969.97;2106038;28;20436;-82
2022/05/04 02:05:41;;;;;;;5.10;4.00;;;;;;;4.68;100.00;92973.41;2114158;28;20031;-80
2022/05/04 02:06:42;;;;;;;5.55;4.45;;;;;;;4.67;100.00;92969.28;2105998;28;20016;-82
2022/05/04 02:07:44;;;;;;;6.70;4.28;;;;;;;4.78;100.00;92979.81;2089368;28;20494;-81
2022/05/04 02:08:45;;;;;;;7.05;4.50;;;;;;;4.77;100.00;92970.38;2089339;28;20119;-81
2022/05/04 02:09:48;;;;;;;7.90;4.40;;;;;;;4.68;100.00;92970.03;2105937;28;20023;-82
2022/05/04 02:10:49;;;;;;;6.65;4.13;;;;;;;4.76;100.00;92976.81;2105754;28;20027;-81
2022/05/04 02:11:50;;;;;;;5.22;4.47;;;;;;;4.76;100.00;92968.88;2089190;28;20113;-83
2022/05/04 02:12:51;;;;;;;7.13;4.57;;;;;;;4.73;100.00;92967.72;2081065;28;20449;-79
2022/05/04 02:13:52;;;;;;;6.03;4.18;;;;;;;4.69;100.00;92974.16;2088075;28;20115;-80
2022/05/04 02:14:53;;;;;;;4.95;4.15;;;;;;;4.66;100.00;92975.72;2088845;28;20036;-81
2022/05/04 02:15:54;;;;;;;5.57;4.68;;;;;;;4.64;100.00;92977.22;2097425;28;20103;-79
2022/05/04 02:16:55;;;;;;;5.80;4.18;;;;;;;4.65;100.00;92968.13;2089332;28;20051;-80
2022/05/04 02:17:56;;;;;;;4.88;4.38;;;;;;;4.60;100.00;92976.47;2097377;28;20016;-82
2022/05/04 02:18:58;;;;;;;5.57;4.50;;;;;;;4.55;100.00;92973.06;2114159;28;20056;-80
2022/05/04 02:19:59;;;;;;;5.10;4.60;;;;;;;4.61;100.00;92975.31;2105753;28;20078;-81
2022/05/04 02:21:01;;;;;;;6.18;4.38;;;;;;;4.63;100.00;92975.72;2089168;28;20028;-82
2022/05/04 02:22:02;;;;;;;7.13;4.40;;;;;;;4.53;100.00;92970.06;2089183;28;20052;-81
2022/05/04 02:23:02;;;;;;;6.50;5.28;;;;;;;4.53;100.00;92975.34;2105622;28;20024;-82
2022/05/04 02:24:04;;;;;;;5.57;4.70;;;;;;;4.55;100.00;92972.31;2114168;28;20377;-82
2022/05/04 02:25:05;;;;;;;7.35;4.57;;;;;;;4.61;100.00;92972.66;2105851;28;20027;-81
2022/05/04 02:26:06;;;;;;;6.80;4.15;;;;;;;4.63;100.00;92968.53;2104975;28;20036;-82
2022/05/04 02:27:07;;;;;;;6.22;4.25;;;;;;;4.66;100.00;92967.75;2097737;28;20021;-82
2022/05/04 02:28:08;;;;;;;5.15;3.95;;;;;;;4.64;100.00;92969.28;2097175;28;20020;-80
2022/05/04 02:29:09;;;;;;;4.82;4.22;;;;;;;4.58;100.00;92966.25;2105601;28;20019;-80
2022/05/04 02:30:10;;;;;;;6.68;4.63;;;;;;;4.49;100.00;92964.00;2112366;28;20016;-79
2022/05/04 02:31:11;;;;;;;5.30;4.13;;;;;;;4.44;100.00;92968.94;2105622;28;20028;-81
2022/05/04 02:32:12;;;;;;;4.78;4.30;;;;;;;4.63;100.00;92967.75;2100240;28;20028;-80
2022/05/04 02:33:14;;;;;;;6.30;4.13;;;;;;;4.57;100.00;92964.75;2113970;28;20047;-82
2022/05/04 02:34:15;;;;;;;7.15;4.30;;;;;;;4.62;100.00;92963.63;2113905;28;20446;-81
2022/05/04 02:37:56;;;;;;;5.97;4.15;;;;;;;4.65;100.00;92957.53;2107535;28;20088;-80
2022/05/04 02:38:56;;;;;;;4.57;4.10;;;;;;;4.55;100.00;92972.31;2114495;28;20023;-83
2022/05/04 02:39:57;;;;;;;4.88;4.10;;;;;;;4.49;100.00;92963.25;2114146;28;20053;-82
2022/05/04 02:40:58;;;;;;;5.13;3.90;;;;;;;4.50;100.00;92968.16;2114215;28;20503;-82
2022/05/04 02:41:59;;;;;;;4.38;3.95;;;;;;;4.54;100.00;92965.50;2122463;28;20508;-80
2022/05/04 02:43:03;;;;;;;4.65;4.22;;;;;;;4.42;100.00;92964.00;2105766;28;20023;-81
2022/05/04 02:44:04;;;;;;;4.55;4.07;;;;;;;4.60;100.00;92963.97;2106597;28;20110;-82
2022/05/04 02:45:06;;;;;;;5.60;4.38;;;;;;;4.41;100.00;92964.41;2116365;28;20020;-82
2022/05/04 02:46:18;;;;;;;4.10;3.70;;;;;;;4.41;100.00;92967.03;2122528;28;20046;-82
2022/05/04 02:47:18;;;;;;;4.15;3.75;;;;;;;4.36;100.00;92962.88;2113982;28;20023;-82
2022/05/04 02:48:20;;;;;;;5.22;4.07;;;;;;;4.28;100.00;92971.97;2105777;28;20028;-81
2022/05/04 02:49:20;;;;;;;4.78;3.90;;;;;;;4.35;100.00;92961.38;2097098;28;20028;-80
2022/05/04 02:50:21;;;;;;;5.40;3.92;;;;;;;4.33;100.00;92968.94;2096611;28;20412;-82
2022/05/04 02:51:23;;;;;;;6.90;3.80;;;;;;;4.37;100.00;92969.69;2109651;28;20124;-80
2022/05/04 02:52:24;;;;;;;4.32;3.90;;;;;;;4.35;100.00;92963.28;2101385;28;20036;-80
2022/05/04 02:53:25;;;;;;;4.50;4.10;;;;;;;4.33;100.00;92966.28;2097142;28;20024;-81
2022/05/04 02:54:26;;;;;;;4.43;4.03;;;;;;;4.42;100.00;92968.53;2113455;28;20051;-82
2022/05/04 02:55:27;;;;;;;4.35;3.72;;;;;;;4.39;100.00;92966.66;2101335;28;20032;-82
2022/05/04 02:56:28;;;;;;;4.53;3.90;;;;;;;4.31;100.00;92957.97;2109776;28;20050;-80
2022/05/04 02:57:28;;;;;;;12.15;3.95;;;;;;;4.29;100.00;92962.88;2104148;28;20496;-83
2022/05/04 02:58:29;;;;;;;4.50;4.10;;;;;;;4.38;100.00;92963.25;2094266;28;20028;-82
2022/05/04 02:59:30;;;;;;;4.00;3.60;;;;;;;4.36;100.00;92972.72;2097152;28;20481;-80
2022/05/04 03:00:31;;;;;;;5.18;3.75;;;;;;;4.35;100.00;92969.31;2105696;28;20028;-82
2022/05/04 03:02:53;;;;;;;4.25;3.50;;;;;;;4.30;100.00;92967.03;2116364;28;20075;-81
2022/05/04 03:03:54;;;;;;;4.00;3.53;;;;;;;4.22;100.00;92968.94;2097356;28;20062;-83
2022/05/04 03:04:56;;;;;;;3.88;3.50;;;;;;;4.40;100.00;92966.28;2093492;28;20027;-82
2022/05/04 03:05:57;;;;;;;3.67;3.38;;;;;;;4.27;100.00;92963.28;2097324;28;20013;-81
2022/05/04 03:06:58;;;;;;;4.07;3.67;;;;;;;4.18;100.00;92964.78;2109893;28;20024;-80
2022/05/04 03:07:59;;;;;;;4.53;3.47;;;;;;;4.22;100.00;92962.91;2109786;28;20078;-79
2022/05/04 03:09:00;;;;;;;6.22;3.70;;;;;;;4.32;100.00;92961.38;2105527;28;20024;-80
2022/05/04 03:10:01;;;;;;;4.03;3.60;;;;;;;4.21;100.00;92958.72;2118241;28;20023;-83
2022/05/04 03:12:26;;;;;;;3.95;3.47;;;;;;;4.16;100.00;92951.19;2122577;28;20026;-80
2022/05/04 03:13:27;;;;;;;3.72;3.42;;;;;;;4.06;100.00;92960.63;2097642;28;20119;-82
2022/05/04 03:14:28;;;;;;;3.92;3.30;;;;;;;3.94;100.00;92958.34;2096533;28;20138;-81
2022/05/04 03:15:29;;;;;;;4.32;3.58;;;;;;;4.00;100.00;92959.50;2113816;28;20028;-81
2022/05/04 03:16:30;;;;;;;6.05;3.47;;;;;;;4.08;100.00;92957.59;2106479;28;20020;-81
2022/05/04 03:17:31;;;;;;;4.47;3.40;;;;;;;4.01;100.00;92955.72;2115526;28;20028;-80
2022/05/04 03:18:32;;;;;;;4.80;3.47;;;;;;;4.06;100.00;92952.69;2124196;27;20027;-80
2022/05/04 03:19:33;;;;;;;5.38;4.35;;;;;;;4.22;100.00;92949.69;2115700;28;20024;-82
2022/05/04 03:20:34;;;;;;;4.38;3.47;;;;;;;4.16;100.00;92944.00;2124050;27;20023;-81
2022/05/04 03:21:35;;;;;;;6.20;4.00;;;;;;;4.01;100.00;92943.25;2115441;28;20508;-81
2022/05/04 03:22:36;;;;;;;5.20;3.63;;;;;;;4.00;100.00;92952.31;2107084;28;20062;-79
2022/05/04 03:23:38;;;;;;;3.80;3.33;;;;;;;4.08;100.00;92947.00;2115384;28;20023;-80
2022/05/04 03:24:39;;;;;;;4.43;3.63;;;;;;;3.99;100.00;92950.78;2108987;28;20540;-81
2022/05/04 03:25:40;;;;;;;4.68;3.85;;;;;;;3.97;100.00;92950.44;2104933;28;20094;-81
2022/05/04 03:26:41;;;;;;;8.35;3.90;;;;;;;3.84;100.00;92956.47;2112550;28;20138;-82
2022/05/04 03:27:42;;;;;;;5.72;3.70;;;;;;;3.93;100.00;92951.56;2109605;28;20379;-80
2022/05/04 03:28:45;;;;;;;4.18;3.45;;;;;;;3.90;100.00;92952.31;2115788;28;20050;-80
2022/05/04 03:29:46;;;;;;;3.75;3.30;;;;;;;3.91;100.00;92946.66;2107142;28;20023;-81
2022/05/04 03:30:47;;;;;;;3.90;3.50;;;;;;;3.93;100.00;92948.91;2090368;28;20029;-80
2022/05/04 03:31:48;;;;;;;4.05;3.33;;;;;;;3.85;100.00;92950.78;2114338;28;20020;-81
2022/05/04 03:33:06;;;;;;;3.75;3.40;;;;;;;3.79;100.00;92949.66;2115569;28;20029;-82
2022/05/04 03:34:07;;;;;;;5.45;3.25;;;;;;;3.82;100.00;92943.63;2109252;28;20016;-81
2022/05/04 03:35:08;;;;;;;5.80;3.78;;;;;;;3.74;100.00;92942.88;2115342;28;20085;-81
2022/05/04 03:36:09;;;;;;;3.53;3.22;;;;;;;3.71;100.00;92946.25;2106940;28;20599;-81
2022/05/04 03:37:10;;;;;;;4.15;3.75;;;;;;;3.85;100.00;92947.41;2109473;28;20023;-82
2022/05/04 03:38:11;;;;;;;4.75;3.88;;;;;;;3.78;100.00;92946.25;2098010;28;20036;-81
2022/05/04 03:39:12;;;;;;;5.57;3.70;;;;;;;3.77;100.00;92943.97;2098731;28;20091;-80
2022/05/04 03:40:15;;;;;;;4.90;3.47;;;;;;;3.70;100.00;92947.38;2106982;28;20024;-81
2022/05/04 03:41:16;;;;;;;4.22;3.70;;;;;;;3.78;100.00;92940.22;2107133;28;20027;-82
2022/05/04 03:42:17;;;;;;;4.85;3.85;;;;;;;3.76;100.00;92939.84;2115377;28;20024;-82
2022/05/04 03:43:18;;;;;;;4.07;3.67;;;;;;;3.71;100.00;92948.13;2115476;28;20844;-81
2022/05/04 03:44:19;;;;;;;4.28;3.38;;;;;;;3.70;100.00;92941.34;2107021;28;20047;-80
2022/05/04 03:45:20;;;;;;;3.90;3.33;;;;;;;3.72;100.00;92944.34;2094303;28;20024;-80
2022/05/04 03:46:23;;;;;;;4.80;3.50;;;;;;;3.70;100.00;92939.47;2115496;28;20464;-80
2022/05/04 03:47:24;;;;;;;4.57;3.65;;;;;;;3.69;100.00;92942.47;2119881;27;20042;-81
2022/05/04 03:48:25;;;;;;;5.20;3.35;;;;;;;3.65;100.00;92949.66;2115337;28;20402;-81
2022/05/04 03:49:26;;;;;;;3.80;3.50;;;;;;;3.69;100.00;92943.25;2106620;28;20508;-80
2022/05/04 03:50:27;;;;;;;3.72;3.38;;;;;;;3.63;100.00;92944.72;2098249;28;20024;-80
2022/05/04 03:51:28;;;;;;;4.22;3.33;;;;;;;3.51;100.00;92947.72;2099542;28;20067;-82
2022/05/04 03:52:29;;;;;;;3.80;3.17;;;;;;;3.55;100.00;92943.19;2107030;28;20047;-80
2022/05/04 03:53:40;;;;;;;4.47;3.58;;;;;;;3.50;100.00;92952.25;2098873;28;20028;-81
2022/05/04 03:54:41;;;;;;;3.80;3.50;;;;;;;3.49;100.00;92944.72;2101431;28;20056;-80
2022/05/04 03:55:42;;;;;;;3.38;3.08;;;;;;;3.52;100.00;92947.34;2098463;28;20492;-82
2022/05/04 03:56:43;;;;;;;3.78;3.47;;;;;;;3.53;100.00;92948.13;2107053;28;20491;-82
2022/05/04 03:57:44;;;;;;;5.00;3.22;;;;;;;3.54;100.00;92942.44;2115223;28;20027;-80
2022/05/04 03:58:46;;;;;;;4.65;3.00;;;;;;;3.57;100.00;92948.88;2107155;28;20634;-82
2022/05/04 03:59:47;;;;;;;3.92;3.42;;;;;;;3.57;100.00;92945.47;2106936;28;20020;-80
2022/05/04 04:00:48;;;;;;;3.25;2.97;;;;;;;3.57;100.00;92945.47;2106790;28;20032;-82
2022/05/04 04:01:49;;;;;;;3.53;3.20;;;;;;;3.50;100.00;92946.22;2097964;28;20473;-82
2022/05/04 04:02:50;;;;;;;3.53;3.20;;;;;;;3.53;100.00;92953.41;2106525;28;20065;-81
2022/05/04 04:03:51;;;;;;;2.97;2.78;;;;;;;3.54;100.00;92947.72;2106865;28;20101;-83
2022/05/04 04:04:52;;;;;;;3.35;2.85;;;;;;;3.54;100.00;92950.38;2106945;28;20053;-80
2022/05/04 04:05:53;;;;;;;6.20;3.20;;;;;;;3.47;100.00;92952.25;2098427;28;20037;-82
2022/05/04 04:06:54;;;;;;;3.40;3.10;;;;;;;3.46;100.00;92951.47;2106614;28;20032;-81
2022/05/04 04:07:54;;;;;;;3.63;2.97;;;;;;;3.56;100.00;92949.22;2106878;28;20020;-80
2022/05/04 04:08:55;;;;;;;3.17;2.97;;;;;;;3.55;100.00;92956.41;2098510;28;20054;-83
2022/05/04 04:09:56;;;;;;;5.53;2.95;;;;;;;3.56;100.00;92951.88;2098503;28;20063;-82
2022/05/04 04:10:58;;;;;;;3.55;3.22;;;;;;;3.54;100.00;92955.66;2108837;28;20020;-80
2022/05/04 04:12:00;;;;;;;3.55;3.25;;;;;;;3.57;100.00;92948.13;2107059;28;20103;-81
2022/05/04 04:13:02;;;;;;;3.67;3.40;;;;;;;3.52;100.00;92952.66;2106552;28;20425;-82
2022/05/04 04:14:04;;;;;;;3.75;3.45;;;;;;;3.56;100.00;92954.53;2097485;28;20036;-80
2022/05/04 04:15:05;;;;;;;3.95;3.65;;;;;;;3.51;100.00;92953.78;2098806;28;20020;-81
2022/05/04 04:16:06;;;;;;;3.47;3.17;;;;;;;3.54;100.00;92954.91;2098358;28;20028;-82
2022/05/04 04:17:07;;;;;;;3.20;3.00;;;;;;;3.52;100.00;92957.19;2098547;28;20032;-79
2022/05/04 04:18:09;;;;;;;3.70;3.33;;;;;;;3.50;100.00;92960.19;2098501;28;20027;-79
2022/05/04 04:19:10;;;;;;;3.85;3.47;;;;;;;3.54;100.00;92960.94;2098669;28;20028;-79
2022/05/04 04:22:50;;;;;;;8.80;6.47;;;;;;;3.48;100.00;92972.25;2105892;28;20031;-82
2022/05/04 04:23:51;;;;;;;9.23;8.32;;;;;;;3.43;100.00;92968.09;2096486;28;20032;-80
2022/05/04 04:24:52;;;;;;;8.52;7.15;;;;;;;3.50;100.00;92977.91;2104705;28;20019;-81
2022/05/04 04:25:53;;;;;;;8.75;7.80;;;;;;;3.40;100.00;92973.38;2094947;28;20105;-81
2022/05/04 04:26:54;;;;;;;9.57;8.55;;;;;;;3.40;100.00;92971.47;2094734;28;20033;-80
2022/05/04 04:27:57;;;;;;;10.43;8.48;;;;;;;3.34;100.00;92972.97;2107328;28;20024;-81
2022/05/04 04:28:58;;;;;;;6.25;5.55;;;;;;;3.43;100.00;92978.66;2097449;28;20024;-81
2022/05/04 04:29:59;;;;;;;5.72;5.13;;;;;;;3.50;100.00;92970.00;2101505;28;20560;-80
2022/05/04 04:31:02;;;;;;;6.43;4.68;;;;;;;3.54;100.00;92970.75;2087226;28;20029;-81
2022/05/04 04:32:03;;;;;;;5.88;5.03;;;;;;;3.59;100.00;92969.63;2094354;28;20083;-82
2022/05/04 04:33:10;;;;;;;4.47;4.07;;;;;;;3.56;100.00;92973.00;2104838;28;20027;-80
2022/05/04 04:34:11;;;;;;;5.20;3.85;;;;;;;3.61;100.00;92972.66;2095667;28;20504;-81
2022/05/04 04:35:14;;;;;;;8.50;5.80;;;;;;;3.65;100.00;92974.19;2096451;28;20017;-82
2022/05/04 04:36:15;;;;;;;12.35;11.05;;;;;;;3.65;100.00;92976.84;2088853;28;20029;-81
2022/05/04 04:37:16;;;;;;;19.02;14.23;;;;;;;3.53;100.00;92977.19;2096445;28;20028;-80
2022/05/04 04:38:17;;;;;;;11.43;9.35;;;;;;;3.39;100.00;92977.16;2111559;28;20648;-80
2022/05/04 04:39:18;;;;;;;11.10;8.98;;;;;;;3.36;100.00;92973.34;2112956;28;20027;-82
2022/05/04 04:40:19;;;;;;;7.35;6.65;;;;;;;3.41;100.00;92972.22;2105441;28;20629;-80
2022/05/04 04:41:20;;;;;;;7.82;6.88;;;;;;;3.47;100.00;92968.88;2105181;28;20024;-80
2022/05/04 04:42:21;;;;;;;6.30;5.70;;;;;;;3.50;100.00;92976.03;2089110;28;20033;-81
2022/05/04 04:43:22;;;;;;;5.82;5.32;;;;;;;3.58;100.00;92974.16;2101678;28;20718;-81
2022/05/04 04:44:23;;;;;;;6.00;5.40;;;;;;;3.53;100.00;92971.88;2097025;28;20420;-80
2022/05/04 04:45:24;;;;;;;6.68;6.05;;;;;;;3.67;100.00;92973.81;2109603;28;20028;-81
2022/05/04 04:46:25;;;;;;;6.47;5.88;;;;;;;3.58;100.00;92979.44;2097139;28;20688;-83
2022/05/04 04:47:26;;;;;;;6.38;5.75;;;;;;;3.56;100.00;92984.38;2113790;28;20032;-81
2022/05/04 04:48:27;;;;;;;7.50;4.60;;;;;;;3.53;100.00;92974.53;2109995;28;20047;-80
2022/05/04 04:49:28;;;;;;;7.13;5.28;;;;;;;3.57;100.00;92979.84;2096790;28;20027;-81
2022/05/04 04:50:29;;;;;;;6.13;4.85;;;;;;;3.56;100.00;92979.09;2096546;28;20021;-81
2022/05/04 04:51:29;;;;;;;5.43;4.55;;;;;;;3.59;100.00;92978.31;2105210;28;20733;-80
2022/05/04 04:52:30;;;;;;;6.35;4.05;;;;;;;3.75;100.00;92975.34;2105757;28;20037;-82
2022/05/04 04:53:31;;;;;;;4.55;4.15;;;;;;;3.61;100.00;92983.25;2105591;28;20135;-81
2022/05/04 04:54:32;;;;;;;6.80;4.53;;;;;;;3.58;100.00;92981.34;2088474;28;20033;-79
2022/05/04 04:55:35;;;;;;;4.20;3.90;;;;;;;3.50;100.00;92983.19;2097509;28;20021;-80
2022/05/04 04:56:36;;;;;;;7.47;4.35;;;;;;;3.68;100.00;92977.97;2113771;28;20035;-81
2022/05/04 04:57:37;;;;;;;5.00;4.50;;;;;;;3.62;100.00;92980.22;2106388;28;20645;-81
2022/05/04 04:58:38;;;;;;;5.03;4.07;;;;;;;3.74;100.00;92982.50;2090970;28;20032;-80
2022/05/04 04:59:39;;;;;;;4.57;4.18;;;;;;;3.73;100.00;92982.88;2096988;28;20027;-80